首页
METAR-TAF:

METAR-TAF

机场 :

安吉利斯港, 华盛顿, 美国

纬度: 48-07-20N, 经度: 123-30-19W, 海拔: 87米

当前天气观测

该预报发布于21分钟前的19:35 UTC
静风
温度 3°C
湿度 93%
气压 1002 hPa
能見度: 16.1公里
阴天层高于900英尺

METAR: KCLM 151935Z AUTO 00000KT 10SM OVC009 03/02 A2959 RMK AO2 T00280017

时间: 11:56 (19:56 UTC)

预报

该预报发布于2小时和32分钟前的17:24 UTC
预报有效从15日的 18点(UTC)到 16日的 18点(UTC)
风速3节,风向多变
能見度: 10公里
多云层高于1000英尺
阴天层高于1500英尺
附近有阵雨
从 16日的 0000点(UTC)
风速3节,风向多变
能見度: 10公里
阴天层高于5000英尺
附近有阵雨
从 16日的 0800点(UTC)
风速3节,风向西南
能見度: 10公里
阴天层高于2500英尺

TAF: KCLM 151724Z 1518/1618 VRB03KT P6SM VCSH BKN010 OVC015 FM160000 VRB03KT P6SM VCSH OVC050 FM160800 23003KT P6SM OVC025

超过4000个机场的气象观测和天气预报(METAR&TAF报告)。

可查询的气象台以黄色和红色小点在地图上表示。

将鼠标移到小点上方,可查看气象台名称。

然后点击查看天气观测和预报。

如需切换地图:点击带黑十字的绿色按钮放大地图;点击带横线的绿色按钮缩小地图;或者点击绿色箭头查看邻近地区的地图。


METAR-TAF: